createdAt,value
2023-01-29T00:01:20.968Z,0.40
2023-01-29T00:03:51.006Z,0.70
2023-01-29T00:06:17.674Z,0.30
2023-01-29T00:08:45.367Z,0.00
2023-01-29T00:11:12.874Z,0.80
2023-01-29T00:13:39.539Z,-0.30
2023-01-29T00:16:06.658Z,0.00
2023-01-29T00:18:33.271Z,0.10
2023-01-29T00:25:54.724Z,0.80
2023-01-29T00:33:15.214Z,0.90
2023-01-29T00:35:43.110Z,0.40
2023-01-29T00:40:58.806Z,0.50
2023-01-29T00:43:44.691Z,0.50
2023-01-29T00:46:11.520Z,0.40
2023-01-29T00:48:38.184Z,0.30
2023-01-29T00:53:31.887Z,0.40
2023-01-29T00:58:27.634Z,0.40
2023-01-29T01:00:55.614Z,0.50
2023-01-29T01:08:34.282Z,0.90
2023-01-29T01:11:04.062Z,0.40
2023-01-29T01:13:33.501Z,0.70
2023-01-29T01:16:00.309Z,0.10
2023-01-29T01:18:30.168Z,0.40
2023-01-29T01:20:58.812Z,0.60
2023-01-29T01:23:25.639Z,0.30
2023-01-29T01:28:19.205Z,0.50
2023-01-29T01:30:46.528Z,0.50
2023-01-29T01:33:13.328Z,0.50
2023-01-29T01:35:43.074Z,0.30
2023-01-29T01:38:12.225Z,0.50
2023-01-29T01:40:48.461Z,0.30
2023-01-29T01:43:17.252Z,0.60
2023-01-29T01:48:16.828Z,0.70
2023-01-29T01:50:49.019Z,0.40
2023-01-29T01:53:21.622Z,0.60
2023-01-29T01:55:51.465Z,1.00
2023-01-29T01:58:23.823Z,0.70
2023-01-29T02:00:50.977Z,0.80
2023-01-29T02:03:39.479Z,0.70
2023-01-29T02:09:13.473Z,0.60
2023-01-29T02:16:35.286Z,0.90
2023-01-29T02:19:04.946Z,0.40
2023-01-29T02:22:10.454Z,0.90
2023-01-29T02:25:11.764Z,0.50
2023-01-29T02:28:13.077Z,0.80
2023-01-29T02:30:44.705Z,0.60
2023-01-29T02:33:21.508Z,0.70
2023-01-29T02:35:58.172Z,0.70
2023-01-29T02:38:30.462Z,0.80
2023-01-29T02:41:01.348Z,0.50
2023-01-29T02:43:37.879Z,0.80
2023-01-29T02:46:17.489Z,0.90
2023-01-29T02:48:56.562Z,0.90
2023-01-29T02:51:35.278Z,0.70
2023-01-29T02:54:06.560Z,0.80
2023-01-29T02:56:39.777Z,0.40
2023-01-29T02:59:11.651Z,0.40
2023-01-29T03:01:44.631Z,0.70
2023-01-29T03:04:16.006Z,0.60
2023-01-29T03:06:48.695Z,0.60
2023-01-29T03:09:22.690Z,0.60
2023-01-29T03:11:54.255Z,0.80
2023-01-29T03:14:25.694Z,0.50
2023-01-29T03:16:53.664Z,0.70
2023-01-29T03:19:29.224Z,1.00
2023-01-29T03:22:01.257Z,0.70
2023-01-29T03:24:55.175Z,0.70
2023-01-29T03:27:44.119Z,0.60
2023-01-29T03:30:33.640Z,0.30
2023-01-29T03:33:06.202Z,0.80
2023-01-29T03:35:36.813Z,0.50
2023-01-29T03:38:05.334Z,0.00
2023-01-29T03:40:42.900Z,0.70
2023-01-29T03:43:14.640Z,0.90
2023-01-29T03:45:51.691Z,0.80
2023-01-29T03:48:28.446Z,0.90
2023-01-29T03:51:01.436Z,0.90
2023-01-29T03:53:36.789Z,0.20
2023-01-29T03:56:08.190Z,0.90
2023-01-29T03:58:39.684Z,0.80
2023-01-29T04:01:14.483Z,0.80
2023-01-29T04:03:46.420Z,0.90
2023-01-29T04:06:17.043Z,0.90
2023-01-29T04:08:49.531Z,0.60
2023-01-29T04:11:20.323Z,0.80
2023-01-29T04:16:19.308Z,0.90
2023-01-29T04:18:47.389Z,0.60
2023-01-29T04:21:14.991Z,0.10
2023-01-29T04:23:42.844Z,0.80
2023-01-29T04:26:24.906Z,0.80
2023-01-29T04:29:06.322Z,0.80
2023-01-29T04:31:40.681Z,0.80
2023-01-29T04:34:21.380Z,0.70
2023-01-29T04:36:59.137Z,0.70
2023-01-29T04:39:32.623Z,0.60
2023-01-29T04:42:06.631Z,0.60
2023-01-29T04:44:41.286Z,0.70
2023-01-29T04:47:19.283Z,0.60
2023-01-29T04:49:49.226Z,0.50
2023-01-29T04:52:21.552Z,0.60
2023-01-29T04:54:58.016Z,0.60
2023-01-29T04:57:32.239Z,0.60
2023-01-29T05:00:06.947Z,0.50
2023-01-29T05:02:37.699Z,1.20
2023-01-29T05:05:05.519Z,1.20
2023-01-29T05:07:35.315Z,0.60
2023-01-29T05:10:03.237Z,0.60
2023-01-29T05:12:30.913Z,0.50
2023-01-29T05:15:02.448Z,0.20
2023-01-29T05:17:29.619Z,0.60
2023-01-29T05:19:57.266Z,0.70
2023-01-29T05:22:25.004Z,0.60
2023-01-29T05:24:51.723Z,-1.40
2023-01-29T05:27:40.577Z,0.60
2023-01-29T05:30:09.598Z,0.10
2023-01-29T05:35:04.621Z,0.60
2023-01-29T05:37:31.318Z,0.40
2023-01-29T05:39:57.962Z,0.80
2023-01-29T05:44:52.005Z,0.60
2023-01-29T05:47:19.377Z,0.60
2023-01-29T05:52:13.585Z,0.40
2023-01-29T05:54:40.210Z,0.60
2023-01-29T05:57:06.914Z,0.70
2023-01-29T05:59:33.577Z,0.90
2023-01-29T06:09:21.824Z,0.70
2023-01-29T06:14:15.529Z,0.80
2023-01-29T06:16:42.178Z,1.40
2023-01-29T06:19:08.859Z,1.10
2023-01-29T06:21:35.599Z,1.00
2023-01-29T06:24:02.334Z,0.90
2023-01-29T06:26:29.642Z,0.80
2023-01-29T06:31:37.228Z,0.50
2023-01-29T06:34:04.321Z,0.80
2023-01-29T06:38:57.995Z,0.90
2023-01-29T06:41:24.864Z,1.10
2023-01-29T06:43:52.225Z,0.90
2023-01-29T06:46:18.904Z,0.70
2023-01-29T06:51:12.831Z,0.60
2023-01-29T06:53:40.096Z,1.20
2023-01-29T06:56:08.025Z,1.00
2023-01-29T06:58:36.841Z,0.60
2023-01-29T07:01:05.239Z,1.00
2023-01-29T07:03:32.275Z,0.80
2023-01-29T07:08:25.951Z,1.00
2023-01-29T07:10:52.561Z,1.20
2023-01-29T07:13:19.264Z,0.90
2023-01-29T07:15:45.890Z,1.20
2023-01-29T07:18:13.227Z,1.20
2023-01-29T07:20:41.254Z,1.10
2023-01-29T07:23:10.575Z,1.10
2023-01-29T07:25:37.316Z,1.30
2023-01-29T07:28:04.400Z,1.00
2023-01-29T07:30:31.274Z,1.20
2023-01-29T07:33:01.699Z,1.30
2023-01-29T07:35:29.026Z,1.10
2023-01-29T07:42:49.809Z,1.00
2023-01-29T07:45:16.985Z,1.10
2023-01-29T07:47:43.625Z,1.40
2023-01-29T07:50:11.108Z,1.20
2023-01-29T07:52:38.456Z,1.00
2023-01-29T07:55:05.890Z,0.90
2023-01-29T07:59:59.534Z,1.00
2023-01-29T08:07:20.170Z,1.20
2023-01-29T08:09:48.258Z,1.30
2023-01-29T08:12:15.002Z,1.30
2023-01-29T08:14:41.705Z,1.40
2023-01-29T08:17:13.177Z,1.00
2023-01-29T08:19:39.989Z,1.40
2023-01-29T08:22:06.751Z,1.10
2023-01-29T08:27:20.937Z,1.40
2023-01-29T08:29:48.255Z,1.10
2023-01-29T08:32:15.007Z,1.50
2023-01-29T08:34:41.641Z,1.30
2023-01-29T08:37:08.282Z,1.30
2023-01-29T08:44:29.740Z,1.40
2023-01-29T08:46:57.543Z,1.30
2023-01-29T08:49:24.331Z,1.40
2023-01-29T08:51:51.094Z,1.20
2023-01-29T08:54:17.799Z,2.20
2023-01-29T08:56:45.078Z,1.30
2023-01-29T09:01:39.653Z,1.40
2023-01-29T09:04:06.552Z,2.20
2023-01-29T09:06:33.484Z,1.30
2023-01-29T09:09:00.257Z,1.60
2023-01-29T09:16:21.004Z,1.60
2023-01-29T09:18:48.333Z,1.60
2023-01-29T09:21:15.294Z,1.60
2023-01-29T09:26:08.975Z,1.60
2023-01-29T09:28:35.665Z,1.60
2023-01-29T09:31:03.197Z,1.70
2023-01-29T09:33:30.620Z,1.80
2023-01-29T09:35:58.080Z,1.80
2023-01-29T09:38:24.901Z,2.60
2023-01-29T09:40:58.007Z,1.70
2023-01-29T09:43:30.991Z,1.90
2023-01-29T09:46:01.426Z,2.50
2023-01-29T09:48:32.477Z,2.20
2023-01-29T09:51:04.858Z,2.10
2023-01-29T09:53:39.492Z,2.60
2023-01-29T09:56:12.252Z,2.30
2023-01-29T09:58:42.039Z,2.20
2023-01-29T10:01:16.483Z,2.80
2023-01-29T10:04:05.148Z,2.10
2023-01-29T10:06:50.214Z,2.20
2023-01-29T10:09:50.012Z,2.30
2023-01-29T10:12:42.360Z,2.30
2023-01-29T10:15:21.539Z,2.50
2023-01-29T10:18:01.877Z,3.00
2023-01-29T10:20:52.942Z,2.50
2023-01-29T10:23:24.802Z,2.70
2023-01-29T10:25:53.147Z,2.40
2023-01-29T10:28:23.797Z,3.30
2023-01-29T10:30:54.487Z,2.70
2023-01-29T10:33:31.039Z,2.90
2023-01-29T10:36:06.916Z,3.10
2023-01-29T10:38:43.140Z,3.00
2023-01-29T10:41:25.845Z,3.20
2023-01-29T10:44:04.672Z,3.30
2023-01-29T10:46:44.763Z,2.80
2023-01-29T10:49:23.573Z,3.00
2023-01-29T10:52:07.231Z,3.00
2023-01-29T10:54:49.828Z,2.60
2023-01-29T10:57:26.086Z,3.30
2023-01-29T11:00:06.452Z,3.20
2023-01-29T11:02:34.031Z,3.00
2023-01-29T11:05:00.712Z,3.20
2023-01-29T11:07:27.830Z,2.10
2023-01-29T11:10:02.291Z,3.30
2023-01-29T11:12:31.444Z,3.40
2023-01-29T11:15:02.771Z,3.90
2023-01-29T11:17:29.474Z,3.80
2023-01-29T11:19:56.184Z,3.40
2023-01-29T11:22:24.123Z,3.50
2023-01-29T11:25:10.372Z,3.60
2023-01-29T11:27:43.888Z,3.70
2023-01-29T11:30:19.660Z,3.70
2023-01-29T11:32:51.392Z,3.90
2023-01-29T11:35:23.281Z,4.00
2023-01-29T11:37:49.992Z,3.60
2023-01-29T11:40:36.170Z,4.20
2023-01-29T11:43:17.522Z,4.10
2023-01-29T11:45:45.109Z,3.90
2023-01-29T11:48:15.752Z,3.80
2023-01-29T11:50:43.279Z,3.60
2023-01-29T11:53:33.838Z,3.60
2023-01-29T11:56:03.834Z,3.50
2023-01-29T11:58:32.593Z,4.00
2023-01-29T12:01:00.443Z,4.00
2023-01-29T12:03:34.943Z,3.80
2023-01-29T12:06:03.654Z,3.30
2023-01-29T12:08:36.040Z,3.90
2023-01-29T12:11:12.599Z,3.90
2023-01-29T12:13:42.474Z,3.90
2023-01-29T12:16:22.496Z,4.50
2023-01-29T12:18:54.068Z,3.80
2023-01-29T12:21:29.898Z,3.90
2023-01-29T12:24:01.856Z,4.10
2023-01-29T12:26:33.228Z,4.10
2023-01-29T12:29:17.313Z,4.10
2023-01-29T12:31:49.807Z,4.30
2023-01-29T12:34:21.050Z,4.10
2023-01-29T12:36:52.838Z,3.90
2023-01-29T12:39:20.532Z,3.80
2023-01-29T12:41:52.301Z,4.00
2023-01-29T12:44:23.765Z,4.20
2023-01-29T12:46:54.155Z,4.10
2023-01-29T12:49:26.154Z,3.60
2023-01-29T12:51:58.948Z,4.10
2023-01-29T12:54:33.854Z,3.90
2023-01-29T12:57:07.721Z,3.90
2023-01-29T12:59:42.019Z,3.90
2023-01-29T13:02:19.443Z,3.60
2023-01-29T13:04:50.432Z,4.00
2023-01-29T13:07:23.210Z,3.60
2023-01-29T13:09:53.905Z,3.30
2023-01-29T13:12:22.903Z,3.70
2023-01-29T13:14:54.537Z,4.00
2023-01-29T13:17:26.237Z,4.00
2023-01-29T13:19:56.527Z,4.00
2023-01-29T13:22:25.667Z,4.40
2023-01-29T13:25:04.280Z,4.00
2023-01-29T13:27:34.383Z,3.60
2023-01-29T13:30:01.561Z,3.70
2023-01-29T13:32:30.438Z,4.00
2023-01-29T13:35:00.539Z,4.10
2023-01-29T13:37:32.704Z,3.90
2023-01-29T13:40:01.205Z,3.70
2023-01-29T13:42:40.141Z,3.90
2023-01-29T13:45:09.501Z,4.10
2023-01-29T13:47:38.541Z,4.00
2023-01-29T13:50:07.831Z,3.80
2023-01-29T13:52:40.152Z,4.10
2023-01-29T13:55:20.497Z,3.90
2023-01-29T13:57:55.873Z,3.10
2023-01-29T14:01:00.366Z,3.70
2023-01-29T14:04:07.823Z,3.80
2023-01-29T14:06:44.879Z,3.60
2023-01-29T14:09:34.455Z,3.80
2023-01-29T14:12:01.385Z,3.50
2023-01-29T14:14:50.931Z,3.50
2023-01-29T14:17:19.025Z,3.30
2023-01-29T14:19:48.546Z,3.50
2023-01-29T14:22:21.114Z,3.20
2023-01-29T14:24:48.520Z,3.40
2023-01-29T14:27:21.206Z,3.60
2023-01-29T14:29:51.035Z,3.40
2023-01-29T14:32:21.522Z,3.10
2023-01-29T14:34:50.792Z,3.00
2023-01-29T14:37:25.848Z,3.00
2023-01-29T14:39:55.424Z,2.90
2023-01-29T14:42:25.603Z,3.10
2023-01-29T14:45:06.873Z,3.00
2023-01-29T14:47:53.927Z,2.90
2023-01-29T14:50:48.316Z,3.40
2023-01-29T14:53:24.221Z,3.00
2023-01-29T14:55:55.939Z,3.00
2023-01-29T14:58:27.773Z,3.10
2023-01-29T15:00:57.227Z,3.20
2023-01-29T15:03:33.388Z,3.00
2023-01-29T15:06:00.583Z,2.80
2023-01-29T15:08:32.632Z,2.90
2023-01-29T15:11:24.965Z,2.90
2023-01-29T15:13:56.743Z,2.90
2023-01-29T15:16:27.764Z,2.90
2023-01-29T15:19:04.001Z,2.60
2023-01-29T15:21:31.514Z,2.70
2023-01-29T15:24:05.284Z,2.70
2023-01-29T15:29:04.915Z,3.00
2023-01-29T15:31:32.683Z,2.70
2023-01-29T15:34:05.934Z,2.90
2023-01-29T15:36:33.283Z,2.50
2023-01-29T15:39:16.711Z,2.60
2023-01-29T15:44:15.661Z,3.30
2023-01-29T15:46:44.221Z,2.70
2023-01-29T15:49:19.038Z,1.90
2023-01-29T15:51:47.250Z,2.90
2023-01-29T15:54:16.558Z,2.70
2023-01-29T15:56:46.746Z,2.70
2023-01-29T15:59:18.423Z,2.40
2023-01-29T16:04:16.595Z,2.80
2023-01-29T16:06:44.817Z,2.70
2023-01-29T16:09:18.055Z,2.90
2023-01-29T16:11:46.147Z,2.60
2023-01-29T16:14:16.833Z,2.90
2023-01-29T16:16:44.718Z,2.50
2023-01-29T16:19:21.030Z,2.60
2023-01-29T16:21:54.576Z,2.80
2023-01-29T16:24:24.562Z,2.50
2023-01-29T16:26:56.293Z,2.50
2023-01-29T16:29:28.802Z,2.70
2023-01-29T16:32:01.018Z,3.10
2023-01-29T16:34:32.414Z,2.60
2023-01-29T16:37:01.253Z,2.90
2023-01-29T16:39:32.302Z,2.20
2023-01-29T16:42:26.052Z,2.60
2023-01-29T16:44:55.640Z,2.80
2023-01-29T16:47:33.731Z,2.70
2023-01-29T16:50:03.412Z,2.80
2023-01-29T16:52:31.963Z,2.70
2023-01-29T16:55:15.842Z,2.60
2023-01-29T16:57:47.747Z,2.60
2023-01-29T17:00:21.813Z,2.80
2023-01-29T17:02:52.166Z,2.70
2023-01-29T17:05:22.527Z,3.10
2023-01-29T17:07:49.715Z,2.60
2023-01-29T17:10:18.667Z,2.70
2023-01-29T17:12:53.822Z,3.20
2023-01-29T17:15:35.519Z,2.80
2023-01-29T17:18:02.906Z,2.00
2023-01-29T17:20:31.464Z,2.50
2023-01-29T17:22:58.186Z,2.80
2023-01-29T17:25:25.036Z,2.60
2023-01-29T17:30:20.593Z,2.40
2023-01-29T17:32:47.661Z,2.70
2023-01-29T17:35:16.559Z,1.80
2023-01-29T17:37:44.343Z,2.70
2023-01-29T17:40:26.938Z,2.30
2023-01-29T17:42:53.623Z,2.50
2023-01-29T17:45:20.452Z,2.70
2023-01-29T17:47:47.185Z,2.40
2023-01-29T17:50:20.909Z,2.60
2023-01-29T17:52:48.381Z,2.60
2023-01-29T17:55:15.379Z,3.00
2023-01-29T17:57:42.287Z,2.70
2023-01-29T18:00:16.632Z,2.70
2023-01-29T18:05:10.770Z,2.60
2023-01-29T18:07:38.555Z,2.80
2023-01-29T18:10:11.440Z,2.60
2023-01-29T18:15:06.022Z,2.40
2023-01-29T18:17:32.823Z,2.40
2023-01-29T18:19:59.484Z,2.50
2023-01-29T18:22:26.209Z,2.50
2023-01-29T18:24:52.853Z,2.60
2023-01-29T18:27:20.229Z,2.50
2023-01-29T18:29:49.348Z,2.70
2023-01-29T18:32:16.049Z,2.90
2023-01-29T18:37:12.131Z,2.40
2023-01-29T18:39:39.669Z,2.50
2023-01-29T18:44:34.044Z,2.40
2023-01-29T18:47:00.696Z,2.50
2023-01-29T18:51:54.267Z,2.70
2023-01-29T18:57:06.303Z,2.80
2023-01-29T18:59:35.365Z,2.60
2023-01-29T19:04:29.603Z,2.20
2023-01-29T19:09:23.268Z,2.50
2023-01-29T19:14:16.947Z,2.70
2023-01-29T19:16:44.453Z,2.40
2023-01-29T19:19:11.441Z,2.80
2023-01-29T19:24:09.336Z,2.40
2023-01-29T19:26:36.271Z,3.40
2023-01-29T19:29:03.648Z,2.70
2023-01-29T19:33:59.515Z,2.60
2023-01-29T19:36:26.255Z,2.60
2023-01-29T19:38:52.977Z,2.50
2023-01-29T19:41:19.693Z,2.60
2023-01-29T19:43:47.522Z,2.60
2023-01-29T19:46:14.562Z,2.70
2023-01-29T19:48:41.309Z,2.60
2023-01-29T19:51:10.248Z,2.50
2023-01-29T19:53:38.433Z,2.30
2023-01-29T19:56:07.336Z,2.50
2023-01-29T19:58:35.395Z,2.50
2023-01-29T20:01:04.946Z,2.60
2023-01-29T20:06:02.554Z,2.40
2023-01-29T20:08:30.378Z,2.50
2023-01-29T20:10:57.185Z,2.70
2023-01-29T20:13:24.412Z,2.50
2023-01-29T20:15:52.192Z,2.60
2023-01-29T20:18:20.539Z,2.60
2023-01-29T20:20:49.418Z,2.30
2023-01-29T20:23:31.784Z,2.30
2023-01-29T20:26:04.914Z,2.50
2023-01-29T20:28:32.903Z,2.70
2023-01-29T20:30:59.753Z,2.20
2023-01-29T20:33:27.027Z,2.80
2023-01-29T20:35:54.916Z,2.50
2023-01-29T20:38:22.044Z,2.30
2023-01-29T20:40:48.972Z,2.00
2023-01-29T20:43:16.762Z,2.40
2023-01-29T20:48:10.758Z,2.50
2023-01-29T20:50:37.485Z,2.10
2023-01-29T20:53:04.286Z,2.20
2023-01-29T20:58:06.487Z,2.10
2023-01-29T21:00:34.188Z,2.10
2023-01-29T21:05:27.843Z,1.90
2023-01-29T21:10:21.803Z,2.10
2023-01-29T21:12:48.429Z,2.50
2023-01-29T21:15:15.186Z,2.40
2023-01-29T21:17:42.924Z,2.30
2023-01-29T21:20:10.597Z,2.20
2023-01-29T21:22:37.730Z,2.40
2023-01-29T21:25:05.049Z,1.90
2023-01-29T21:27:31.732Z,2.30
2023-01-29T21:29:58.399Z,2.20
2023-01-29T21:32:27.285Z,2.20
2023-01-29T21:34:54.724Z,2.30
2023-01-29T21:37:21.397Z,1.80
2023-01-29T21:39:48.107Z,2.30
2023-01-29T21:45:00.187Z,2.20
2023-01-29T21:47:26.877Z,1.60
2023-01-29T21:49:54.224Z,1.90
2023-01-29T21:54:48.325Z,2.40
2023-01-29T21:57:16.470Z,2.10
2023-01-29T21:59:43.647Z,2.00
2023-01-29T22:02:17.303Z,2.20
2023-01-29T22:04:44.043Z,2.10
2023-01-29T22:07:13.579Z,1.90
2023-01-29T22:09:41.852Z,2.10
2023-01-29T22:12:08.783Z,2.20
2023-01-29T22:17:02.562Z,2.00
2023-01-29T22:19:30.594Z,2.30
2023-01-29T22:24:25.074Z,2.10
2023-01-29T22:26:51.736Z,1.60
2023-01-29T22:29:18.853Z,2.60
2023-01-29T22:31:45.787Z,1.50
2023-01-29T22:34:13.922Z,2.20
2023-01-29T22:41:35.957Z,2.40
2023-01-29T22:46:30.178Z,2.40
2023-01-29T22:48:56.974Z,2.40
2023-01-29T22:53:54.008Z,2.20
2023-01-29T22:56:24.520Z,2.10
2023-01-29T22:58:52.262Z,2.30
2023-01-29T23:01:19.745Z,2.10
2023-01-29T23:03:46.496Z,2.20
2023-01-29T23:06:13.164Z,2.20
2023-01-29T23:08:39.846Z,2.20
2023-01-29T23:11:13.428Z,2.20
2023-01-29T23:13:40.978Z,2.30
2023-01-29T23:16:08.621Z,2.20
2023-01-29T23:18:35.506Z,2.00
2023-01-29T23:21:02.311Z,2.10
2023-01-29T23:23:29.373Z,2.30
2023-01-29T23:26:15.578Z,2.30
2023-01-29T23:28:42.708Z,2.00
2023-01-29T23:31:10.142Z,2.30
2023-01-29T23:33:36.903Z,1.80
2023-01-29T23:36:04.001Z,0.60
2023-01-29T23:38:30.641Z,2.30
2023-01-29T23:40:57.479Z,2.40
2023-01-29T23:43:24.738Z,2.10
2023-01-29T23:45:51.612Z,2.20
2023-01-29T23:48:19.667Z,2.20
2023-01-29T23:50:46.674Z,2.50
2023-01-29T23:55:40.467Z,2.20
2023-01-29T23:58:07.589Z,2.40
